sensor_id;sensor_type;location;lat;lon;timestamp;pressure;altitude;pressure_sealevel;temperature;humidity
51067;BME280;37112;45.892;-123.962;2022-09-16T00:01:12;101794.98;;;18.23;71.84
51067;BME280;37112;45.892;-123.962;2022-09-16T00:03:28;101792.91;;;18.20;72.10
51067;BME280;37112;45.892;-123.962;2022-09-16T00:05:45;101794.96;;;18.21;72.13
51067;BME280;37112;45.892;-123.962;2022-09-16T00:07:59;101791.99;;;18.18;71.54
51067;BME280;37112;45.892;-123.962;2022-09-16T00:10:13;101789.23;;;18.19;72.09
51067;BME280;37112;45.892;-123.962;2022-09-16T00:12:26;101792.22;;;18.18;71.24
51067;BME280;37112;45.892;-123.962;2022-09-16T00:14:40;101791.92;;;18.08;70.76
51067;BME280;37112;45.892;-123.962;2022-09-16T00:16:53;101787.30;;;18.01;71.22
51067;BME280;37112;45.892;-123.962;2022-09-16T00:19:07;101790.54;;;17.99;71.64
51067;BME280;37112;45.892;-123.962;2022-09-16T00:21:20;101788.00;;;17.99;71.51
51067;BME280;37112;45.892;-123.962;2022-09-16T00:23:34;101790.84;;;17.97;71.47
51067;BME280;37112;45.892;-123.962;2022-09-16T00:25:51;101795.88;;;17.93;71.32
51067;BME280;37112;45.892;-123.962;2022-09-16T00:28:06;101794.89;;;17.94;71.63
51067;BME280;37112;45.892;-123.962;2022-09-16T00:30:19;101796.47;;;17.96;71.43
51067;BME280;37112;45.892;-123.962;2022-09-16T00:32:33;101800.65;;;17.91;70.63
51067;BME280;37112;45.892;-123.962;2022-09-16T00:34:46;101802.02;;;17.81;70.72
51067;BME280;37112;45.892;-123.962;2022-09-16T00:36:59;101803.80;;;17.79;71.35
51067;BME280;37112;45.892;-123.962;2022-09-16T00:39:13;101802.70;;;17.79;71.38
51067;BME280;37112;45.892;-123.962;2022-09-16T00:41:29;101802.27;;;17.76;70.90
51067;BME280;37112;45.892;-123.962;2022-09-16T00:43:53;101801.41;;;17.75;71.50
51067;BME280;37112;45.892;-123.962;2022-09-16T00:46:07;101805.61;;;17.79;71.57
51067;BME280;37112;45.892;-123.962;2022-09-16T00:48:23;101807.38;;;17.77;71.33
51067;BME280;37112;45.892;-123.962;2022-09-16T00:50:39;101812.09;;;17.74;70.78
51067;BME280;37112;45.892;-123.962;2022-09-16T00:52:54;101813.45;;;17.66;70.90
51067;BME280;37112;45.892;-123.962;2022-09-16T00:55:12;101815.73;;;17.58;71.03
51067;BME280;37112;45.892;-123.962;2022-09-16T00:57:27;101816.23;;;17.47;70.78
51067;BME280;37112;45.892;-123.962;2022-09-16T00:59:45;101816.52;;;17.39;71.05
51067;BME280;37112;45.892;-123.962;2022-09-16T01:02:02;101814.95;;;17.40;71.69
51067;BME280;37112;45.892;-123.962;2022-09-16T01:04:20;101817.55;;;17.41;71.88
51067;BME280;37112;45.892;-123.962;2022-09-16T01:06:36;101816.14;;;17.46;71.98
51067;BME280;37112;45.892;-123.962;2022-09-16T01:08:51;101818.39;;;17.47;71.74
51067;BME280;37112;45.892;-123.962;2022-09-16T01:11:05;101817.48;;;17.42;71.54
51067;BME280;37112;45.892;-123.962;2022-09-16T01:13:18;101820.22;;;17.40;71.49
51067;BME280;37112;45.892;-123.962;2022-09-16T01:15:35;101819.01;;;17.37;71.57
51067;BME280;37112;45.892;-123.962;2022-09-16T01:18:06;101816.95;;;17.38;71.87
51067;BME280;37112;45.892;-123.962;2022-09-16T01:23:27;101816.48;;;17.41;71.76
51067;BME280;37112;45.892;-123.962;2022-09-16T01:25:55;101817.23;;;17.43;71.83
51067;BME280;37112;45.892;-123.962;2022-09-16T01:28:33;101824.86;;;17.40;70.86
51067;BME280;37112;45.892;-123.962;2022-09-16T01:31:10;101825.48;;;17.30;70.74
51067;BME280;37112;45.892;-123.962;2022-09-16T01:33:35;101825.23;;;17.24;70.22
51067;BME280;37112;45.892;-123.962;2022-09-16T01:36:06;101825.97;;;17.21;69.68
51067;BME280;37112;45.892;-123.962;2022-09-16T01:38:31;101831.36;;;17.17;69.85
51067;BME280;37112;45.892;-123.962;2022-09-16T01:40:51;101829.85;;;17.15;69.59
51067;BME280;37112;45.892;-123.962;2022-09-16T01:43:16;101830.38;;;17.11;69.71
51067;BME280;37112;45.892;-123.962;2022-09-16T01:45:40;101832.64;;;17.09;70.03
51067;BME280;37112;45.892;-123.962;2022-09-16T01:47:59;101833.27;;;17.08;69.83
51067;BME280;37112;45.892;-123.962;2022-09-16T01:50:21;101835.73;;;17.07;70.06
51067;BME280;37112;45.892;-123.962;2022-09-16T01:52:44;101834.27;;;17.09;70.16
51067;BME280;37112;45.892;-123.962;2022-09-16T01:55:01;101834.09;;;17.09;69.90
51067;BME280;37112;45.892;-123.962;2022-09-16T01:57:18;101833.42;;;17.09;69.98
51067;BME280;37112;45.892;-123.962;2022-09-16T01:59:37;101833.94;;;17.09;69.84
51067;BME280;37112;45.892;-123.962;2022-09-16T02:01:55;101837.37;;;17.07;69.64
51067;BME280;37112;45.892;-123.962;2022-09-16T02:04:16;101837.21;;;17.04;69.80
51067;BME280;37112;45.892;-123.962;2022-09-16T02:06:32;101837.73;;;16.99;69.65
51067;BME280;37112;45.892;-123.962;2022-09-16T02:08:48;101839.39;;;16.94;69.76
51067;BME280;37112;45.892;-123.962;2022-09-16T02:11:06;101838.10;;;16.87;69.73
51067;BME280;37112;45.892;-123.962;2022-09-16T02:13:22;101835.30;;;16.82;69.86
51067;BME280;37112;45.892;-123.962;2022-09-16T02:15:39;101837.16;;;16.78;69.82
51067;BME280;37112;45.892;-123.962;2022-09-16T02:17:58;101835.55;;;16.74;69.80
51067;BME280;37112;45.892;-123.962;2022-09-16T02:20:16;101840.66;;;16.68;69.75
51067;BME280;37112;45.892;-123.962;2022-09-16T02:22:35;101840.95;;;16.63;69.87
51067;BME280;37112;45.892;-123.962;2022-09-16T02:24:49;101846.83;;;16.62;70.05
51067;BME280;37112;45.892;-123.962;2022-09-16T02:27:08;101847.09;;;16.61;70.20
51067;BME280;37112;45.892;-123.962;2022-09-16T02:29:24;101851.61;;;16.60;70.29
51067;BME280;37112;45.892;-123.962;2022-09-16T02:31:40;101849.33;;;16.57;70.20
51067;BME280;37112;45.892;-123.962;2022-09-16T02:33:56;101851.02;;;16.56;70.36
51067;BME280;37112;45.892;-123.962;2022-09-16T02:36:13;101852.31;;;16.56;70.30
51067;BME280;37112;45.892;-123.962;2022-09-16T02:38:33;101853.95;;;16.53;70.37
51067;BME280;37112;45.892;-123.962;2022-09-16T02:40:50;101851.31;;;16.50;70.35
51067;BME280;37112;45.892;-123.962;2022-09-16T02:43:04;101853.03;;;16.49;70.51
51067;BME280;37112;45.892;-123.962;2022-09-16T02:45:18;101853.15;;;16.47;70.58
51067;BME280;37112;45.892;-123.962;2022-09-16T02:47:35;101856.17;;;16.45;70.61
51067;BME280;37112;45.892;-123.962;2022-09-16T02:49:54;101863.61;;;16.43;70.58
51067;BME280;37112;45.892;-123.962;2022-09-16T02:52:14;101868.85;;;16.43;70.65
51067;BME280;37112;45.892;-123.962;2022-09-16T02:54:35;101869.97;;;16.40;70.59
51067;BME280;37112;45.892;-123.962;2022-09-16T02:56:50;101872.96;;;16.36;70.55
51067;BME280;37112;45.892;-123.962;2022-09-16T02:59:04;101876.70;;;16.33;70.64
51067;BME280;37112;45.892;-123.962;2022-09-16T03:01:19;101875.91;;;16.30;70.59
51067;BME280;37112;45.892;-123.962;2022-09-16T03:03:34;101875.39;;;16.25;70.60
51067;BME280;37112;45.892;-123.962;2022-09-16T03:06:05;101877.69;;;16.20;70.64
51067;BME280;37112;45.892;-123.962;2022-09-16T03:08:22;101877.17;;;16.15;70.78
51067;BME280;37112;45.892;-123.962;2022-09-16T03:10:38;101874.73;;;16.09;70.72
51067;BME280;37112;45.892;-123.962;2022-09-16T03:13:01;101878.69;;;16.04;70.96
51067;BME280;37112;45.892;-123.962;2022-09-16T03:15:42;101880.23;;;16.00;71.05
51067;BME280;37112;45.892;-123.962;2022-09-16T03:18:11;101880.18;;;15.96;71.10
51067;BME280;37112;45.892;-123.962;2022-09-16T03:20:36;101882.14;;;15.91;71.17
51067;BME280;37112;45.892;-123.962;2022-09-16T03:22:58;101883.50;;;15.87;71.24
51067;BME280;37112;45.892;-123.962;2022-09-16T03:25:22;101888.58;;;15.83;71.36
51067;BME280;37112;45.892;-123.962;2022-09-16T03:27:44;101890.32;;;15.79;71.43
51067;BME280;37112;45.892;-123.962;2022-09-16T03:30:04;101891.09;;;15.73;71.40
51067;BME280;37112;45.892;-123.962;2022-09-16T03:32:21;101889.80;;;15.69;71.48
51067;BME280;37112;45.892;-123.962;2022-09-16T03:34:37;101893.30;;;15.65;71.64
51067;BME280;37112;45.892;-123.962;2022-09-16T03:36:55;101891.34;;;15.62;71.69
51067;BME280;37112;45.892;-123.962;2022-09-16T03:39:11;101897.84;;;15.58;71.76
51067;BME280;37112;45.892;-123.962;2022-09-16T03:41:25;101897.84;;;15.56;71.86
51067;BME280;37112;45.892;-123.962;2022-09-16T03:43:39;101899.67;;;15.53;71.94
51067;BME280;37112;45.892;-123.962;2022-09-16T03:45:53;101900.83;;;15.49;72.01
51067;BME280;37112;45.892;-123.962;2022-09-16T03:48:08;101900.53;;;15.46;71.92
51067;BME280;37112;45.892;-123.962;2022-09-16T03:50:22;101902.36;;;15.42;72.06
51067;BME280;37112;45.892;-123.962;2022-09-16T03:52:35;101900.52;;;15.38;72.04
51067;BME280;37112;45.892;-123.962;2022-09-16T03:54:48;101900.35;;;15.32;72.06
51067;BME280;37112;45.892;-123.962;2022-09-16T03:57:03;101902.68;;;15.27;72.10
51067;BME280;37112;45.892;-123.962;2022-09-16T03:59:16;101907.92;;;15.24;72.19
51067;BME280;37112;45.892;-123.962;2022-09-16T04:01:30;101906.84;;;15.19;72.28
51067;BME280;37112;45.892;-123.962;2022-09-16T04:03:43;101912.92;;;15.16;72.44
51067;BME280;37112;45.892;-123.962;2022-09-16T04:05:57;101911.60;;;15.12;72.46
51067;BME280;37112;45.892;-123.962;2022-09-16T04:08:10;101910.51;;;15.07;72.54
51067;BME280;37112;45.892;-123.962;2022-09-16T04:10:24;101913.33;;;15.02;72.66
51067;BME280;37112;45.892;-123.962;2022-09-16T04:12:37;101912.91;;;14.98;72.83
51067;BME280;37112;45.892;-123.962;2022-09-16T04:14:50;101911.19;;;14.94;72.90
51067;BME280;37112;45.892;-123.962;2022-09-16T04:17:04;101913.58;;;14.91;73.03
51067;BME280;37112;45.892;-123.962;2022-09-16T04:19:18;101912.16;;;14.88;73.19
51067;BME280;37112;45.892;-123.962;2022-09-16T04:21:31;101913.48;;;14.84;73.20
51067;BME280;37112;45.892;-123.962;2022-09-16T04:23:44;101915.65;;;14.81;73.36
51067;BME280;37112;45.892;-123.962;2022-09-16T04:25:59;101919.77;;;14.78;73.45
51067;BME280;37112;45.892;-123.962;2022-09-16T04:28:13;101921.00;;;14.73;73.43
51067;BME280;37112;45.892;-123.962;2022-09-16T04:30:26;101919.23;;;14.70;73.65
51067;BME280;37112;45.892;-123.962;2022-09-16T04:32:40;101920.13;;;14.67;73.81
51067;BME280;37112;45.892;-123.962;2022-09-16T04:34:53;101921.04;;;14.65;73.94
51067;BME280;37112;45.892;-123.962;2022-09-16T04:37:06;101920.14;;;14.62;74.03
51067;BME280;37112;45.892;-123.962;2022-09-16T04:39:20;101921.09;;;14.58;74.15
51067;BME280;37112;45.892;-123.962;2022-09-16T04:41:33;101918.78;;;14.55;74.13
51067;BME280;37112;45.892;-123.962;2022-09-16T04:43:49;101916.56;;;14.51;74.16
51067;BME280;37112;45.892;-123.962;2022-09-16T04:46:04;101912.90;;;14.46;74.28
51067;BME280;37112;45.892;-123.962;2022-09-16T04:48:17;101915.03;;;14.43;74.44
51067;BME280;37112;45.892;-123.962;2022-09-16T04:50:31;101914.86;;;14.41;74.59
51067;BME280;37112;45.892;-123.962;2022-09-16T04:52:44;101914.20;;;14.37;74.59
51067;BME280;37112;45.892;-123.962;2022-09-16T04:54:57;101913.24;;;14.33;74.74
51067;BME280;37112;45.892;-123.962;2022-09-16T04:57:10;101911.44;;;14.30;74.83
51067;BME280;37112;45.892;-123.962;2022-09-16T04:59:24;101912.83;;;14.28;75.00
51067;BME280;37112;45.892;-123.962;2022-09-16T05:01:38;101907.95;;;14.26;75.09
51067;BME280;37112;45.892;-123.962;2022-09-16T05:03:55;101907.27;;;14.22;75.18
51067;BME280;37112;45.892;-123.962;2022-09-16T05:06:11;101906.35;;;14.20;75.31
51067;BME280;37112;45.892;-123.962;2022-09-16T05:08:29;101905.84;;;14.17;75.27
51067;BME280;37112;45.892;-123.962;2022-09-16T05:10:42;101901.09;;;14.13;75.25
51067;BME280;37112;45.892;-123.962;2022-09-16T05:12:56;101899.61;;;14.11;75.35
51067;BME280;37112;45.892;-123.962;2022-09-16T05:15:10;101896.48;;;14.10;75.66
51067;BME280;37112;45.892;-123.962;2022-09-16T05:17:24;101895.23;;;14.10;75.64
51067;BME280;37112;45.892;-123.962;2022-09-16T05:19:57;101892.73;;;14.10;75.81
51067;BME280;37112;45.892;-123.962;2022-09-16T05:22:10;101893.84;;;14.09;75.85
51067;BME280;37112;45.892;-123.962;2022-09-16T05:24:24;101896.91;;;14.09;75.82
51067;BME280;37112;45.892;-123.962;2022-09-16T05:26:38;101896.75;;;14.08;75.94
51067;BME280;37112;45.892;-123.962;2022-09-16T05:28:53;101898.95;;;14.07;75.94
51067;BME280;37112;45.892;-123.962;2022-09-16T05:31:19;101897.28;;;14.06;75.92
51067;BME280;37112;45.892;-123.962;2022-09-16T05:33:33;101898.02;;;14.03;75.86
51067;BME280;37112;45.892;-123.962;2022-09-16T05:35:46;101898.04;;;13.99;75.87
51067;BME280;37112;45.892;-123.962;2022-09-16T05:37:59;101899.85;;;13.97;75.87
51067;BME280;37112;45.892;-123.962;2022-09-16T05:40:13;101901.90;;;13.95;76.00
51067;BME280;37112;45.892;-123.962;2022-09-16T05:42:26;101900.02;;;13.93;76.04
51067;BME280;37112;45.892;-123.962;2022-09-16T05:44:40;101892.87;;;13.90;76.01
51067;BME280;37112;45.892;-123.962;2022-09-16T05:46:53;101895.40;;;13.88;75.98
51067;BME280;37112;45.892;-123.962;2022-09-16T05:49:07;101891.95;;;13.86;76.09
51067;BME280;37112;45.892;-123.962;2022-09-16T05:51:22;101893.71;;;13.83;76.12
51067;BME280;37112;45.892;-123.962;2022-09-16T05:53:36;101889.29;;;13.77;75.98
51067;BME280;37112;45.892;-123.962;2022-09-16T05:55:58;101894.83;;;13.74;76.24
51067;BME280;37112;45.892;-123.962;2022-09-16T05:58:12;101891.73;;;13.72;76.38
51067;BME280;37112;45.892;-123.962;2022-09-16T06:00:25;101891.59;;;13.72;76.60
51067;BME280;37112;45.892;-123.962;2022-09-16T06:02:39;101888.09;;;13.70;76.72
51067;BME280;37112;45.892;-123.962;2022-09-16T06:04:52;101887.98;;;13.69;76.68
51067;BME280;37112;45.892;-123.962;2022-09-16T06:07:06;101888.89;;;13.69;76.80
51067;BME280;37112;45.892;-123.962;2022-09-16T06:09:20;101890.15;;;13.69;76.96
51067;BME280;37112;45.892;-123.962;2022-09-16T06:11:37;101894.25;;;13.69;77.03
51067;BME280;37112;45.892;-123.962;2022-09-16T06:13:54;101891.94;;;13.69;77.06
51067;BME280;37112;45.892;-123.962;2022-09-16T06:16:08;101893.73;;;13.69;77.16
51067;BME280;37112;45.892;-123.962;2022-09-16T06:18:24;101895.27;;;13.67;77.12
51067;BME280;37112;45.892;-123.962;2022-09-16T06:20:38;101898.19;;;13.65;77.29
51067;BME280;37112;45.892;-123.962;2022-09-16T06:22:52;101899.86;;;13.64;77.20
51067;BME280;37112;45.892;-123.962;2022-09-16T06:25:05;101898.02;;;13.62;77.26
51067;BME280;37112;45.892;-123.962;2022-09-16T06:27:19;101902.15;;;13.62;77.26
51067;BME280;37112;45.892;-123.962;2022-09-16T06:29:32;101902.92;;;13.61;77.38
51067;BME280;37112;45.892;-123.962;2022-09-16T06:31:46;101905.90;;;13.59;77.36
51067;BME280;37112;45.892;-123.962;2022-09-16T06:33:59;101909.39;;;13.57;77.44
51067;BME280;37112;45.892;-123.962;2022-09-16T06:36:14;101904.84;;;13.56;77.49
51067;BME280;37112;45.892;-123.962;2022-09-16T06:38:28;101907.61;;;13.55;77.43
51067;BME280;37112;45.892;-123.962;2022-09-16T06:40:41;101913.56;;;13.53;77.62
51067;BME280;37112;45.892;-123.962;2022-09-16T06:42:56;101915.98;;;13.52;77.54
51067;BME280;37112;45.892;-123.962;2022-09-16T06:45:12;101920.02;;;13.50;77.59
51067;BME280;37112;45.892;-123.962;2022-09-16T06:47:25;101922.06;;;13.49;77.62
51067;BME280;37112;45.892;-123.962;2022-09-16T06:49:39;101922.38;;;13.47;77.60
51067;BME280;37112;45.892;-123.962;2022-09-16T06:51:53;101923.02;;;13.45;77.69
51067;BME280;37112;45.892;-123.962;2022-09-16T06:54:06;101920.85;;;13.42;77.60
51067;BME280;37112;45.892;-123.962;2022-09-16T06:56:21;101921.89;;;13.40;77.70
51067;BME280;37112;45.892;-123.962;2022-09-16T06:58:35;101923.95;;;13.38;77.80
51067;BME280;37112;45.892;-123.962;2022-09-16T07:00:49;101922.25;;;13.37;77.83
51067;BME280;37112;45.892;-123.962;2022-09-16T07:03:03;101919.32;;;13.35;77.80
51067;BME280;37112;45.892;-123.962;2022-09-16T07:05:16;101921.80;;;13.33;77.78
51067;BME280;37112;45.892;-123.962;2022-09-16T07:07:31;101923.95;;;13.29;77.77
51067;BME280;37112;45.892;-123.962;2022-09-16T07:09:47;101928.69;;;13.28;77.80
51067;BME280;37112;45.892;-123.962;2022-09-16T07:12:01;101929.68;;;13.26;77.85
51067;BME280;37112;45.892;-123.962;2022-09-16T07:14:14;101929.25;;;13.24;77.97
51067;BME280;37112;45.892;-123.962;2022-09-16T07:16:28;101929.52;;;13.23;77.99
51067;BME280;37112;45.892;-123.962;2022-09-16T07:18:41;101931.29;;;13.20;77.97
51067;BME280;37112;45.892;-123.962;2022-09-16T07:20:58;101933.19;;;13.18;78.01
51067;BME280;37112;45.892;-123.962;2022-09-16T07:23:12;101932.42;;;13.15;78.05
51067;BME280;37112;45.892;-123.962;2022-09-16T07:25:25;101933.04;;;13.14;78.00
51067;BME280;37112;45.892;-123.962;2022-09-16T07:27:44;101934.03;;;13.12;77.96
51067;BME280;37112;45.892;-123.962;2022-09-16T07:29:57;101929.39;;;13.09;78.00
51067;BME280;37112;45.892;-123.962;2022-09-16T07:32:15;101927.92;;;13.07;78.03
51067;BME280;37112;45.892;-123.962;2022-09-16T07:34:28;101926.27;;;13.05;77.98
51067;BME280;37112;45.892;-123.962;2022-09-16T07:36:43;101930.00;;;13.02;78.15
51067;BME280;37112;45.892;-123.962;2022-09-16T07:38:57;101929.46;;;12.98;77.96
51067;BME280;37112;45.892;-123.962;2022-09-16T07:41:11;101932.35;;;12.95;77.92
51067;BME280;37112;45.892;-123.962;2022-09-16T07:43:25;101933.25;;;12.92;78.02
51067;BME280;37112;45.892;-123.962;2022-09-16T07:45:39;101936.06;;;12.90;78.15
51067;BME280;37112;45.892;-123.962;2022-09-16T07:47:52;101932.47;;;12.90;78.37
51067;BME280;37112;45.892;-123.962;2022-09-16T07:50:06;101928.97;;;12.89;78.40
51067;BME280;37112;45.892;-123.962;2022-09-16T07:52:20;101926.38;;;12.88;78.33
51067;BME280;37112;45.892;-123.962;2022-09-16T07:54:36;101923.95;;;12.87;78.52
51067;BME280;37112;45.892;-123.962;2022-09-16T07:56:49;101924.72;;;12.86;78.56
51067;BME280;37112;45.892;-123.962;2022-09-16T07:59:04;101921.22;;;12.85;78.53
51067;BME280;37112;45.892;-123.962;2022-09-16T08:01:22;101916.66;;;12.83;78.73
51067;BME280;37112;45.892;-123.962;2022-09-16T08:03:37;101917.99;;;12.81;78.73
51067;BME280;37112;45.892;-123.962;2022-09-16T08:05:50;101919.80;;;12.81;78.81
51067;BME280;37112;45.892;-123.962;2022-09-16T08:08:04;101918.69;;;12.79;78.81
51067;BME280;37112;45.892;-123.962;2022-09-16T08:10:17;101920.54;;;12.78;78.89
51067;BME280;37112;45.892;-123.962;2022-09-16T08:12:30;101918.97;;;12.77;78.93
51067;BME280;37112;45.892;-123.962;2022-09-16T08:14:44;101917.45;;;12.75;78.81
51067;BME280;37112;45.892;-123.962;2022-09-16T08:16:58;101913.32;;;12.73;78.77
51067;BME280;37112;45.892;-123.962;2022-09-16T08:19:12;101913.67;;;12.70;78.83
51067;BME280;37112;45.892;-123.962;2022-09-16T08:21:27;101909.33;;;12.68;78.78
51067;BME280;37112;45.892;-123.962;2022-09-16T08:23:41;101912.00;;;12.65;78.88
51067;BME280;37112;45.892;-123.962;2022-09-16T08:25:59;101909.97;;;12.60;78.82
51067;BME280;37112;45.892;-123.962;2022-09-16T08:28:16;101909.85;;;12.56;78.83
51067;BME280;37112;45.892;-123.962;2022-09-16T08:30:29;101909.47;;;12.50;78.92
51067;BME280;37112;45.892;-123.962;2022-09-16T08:32:43;101912.75;;;12.46;79.08
51067;BME280;37112;45.892;-123.962;2022-09-16T08:34:56;101917.34;;;12.43;79.18
51067;BME280;37112;45.892;-123.962;2022-09-16T08:37:10;101917.46;;;12.41;79.28
51067;BME280;37112;45.892;-123.962;2022-09-16T08:39:23;101920.60;;;12.39;79.41
51067;BME280;37112;45.892;-123.962;2022-09-16T08:41:57;101922.65;;;12.38;79.32
51067;BME280;37112;45.892;-123.962;2022-09-16T08:44:21;101922.90;;;12.36;79.51
51067;BME280;37112;45.892;-123.962;2022-09-16T08:46:41;101924.31;;;12.33;79.40
51067;BME280;37112;45.892;-123.962;2022-09-16T08:49:02;101923.63;;;12.29;79.33
51067;BME280;37112;45.892;-123.962;2022-09-16T08:51:20;101926.61;;;12.27;79.46
51067;BME280;37112;45.892;-123.962;2022-09-16T08:53:40;101923.20;;;12.24;79.47
51067;BME280;37112;45.892;-123.962;2022-09-16T08:55:54;101926.72;;;12.22;79.53
51067;BME280;37112;45.892;-123.962;2022-09-16T08:58:12;101929.17;;;12.19;79.46
51067;BME280;37112;45.892;-123.962;2022-09-16T09:00:28;101931.32;;;12.16;79.49
51067;BME280;37112;45.892;-123.962;2022-09-16T09:02:45;101934.59;;;12.15;79.63
51067;BME280;37112;45.892;-123.962;2022-09-16T09:05:00;101935.52;;;12.14;79.73
51067;BME280;37112;45.892;-123.962;2022-09-16T09:07:22;101931.98;;;12.13;79.82
51067;BME280;37112;45.892;-123.962;2022-09-16T09:09:51;101933.64;;;12.12;79.84
51067;BME280;37112;45.892;-123.962;2022-09-16T09:12:09;101934.73;;;12.12;79.88
51067;BME280;37112;45.892;-123.962;2022-09-16T09:14:33;101933.05;;;12.10;79.76
51067;BME280;37112;45.892;-123.962;2022-09-16T09:16:55;101932.78;;;12.09;79.79
51067;BME280;37112;45.892;-123.962;2022-09-16T09:19:22;101936.37;;;12.08;79.98
51067;BME280;37112;45.892;-123.962;2022-09-16T09:21:46;101932.37;;;12.07;80.03
51067;BME280;37112;45.892;-123.962;2022-09-16T09:24:15;101929.05;;;12.05;80.10
51067;BME280;37112;45.892;-123.962;2022-09-16T09:26:38;101926.36;;;12.03;79.97
51067;BME280;37112;45.892;-123.962;2022-09-16T09:29:12;101925.44;;;12.00;79.87
51067;BME280;37112;45.892;-123.962;2022-09-16T09:31:34;101924.12;;;11.94;79.73
51067;BME280;37112;45.892;-123.962;2022-09-16T09:33:54;101926.92;;;11.92;79.81
51067;BME280;37112;45.892;-123.962;2022-09-16T09:36:24;101929.15;;;11.90;80.00
51067;BME280;37112;45.892;-123.962;2022-09-16T09:38:52;101924.30;;;11.87;80.12
51067;BME280;37112;45.892;-123.962;2022-09-16T09:41:13;101923.55;;;11.85;80.10
51067;BME280;37112;45.892;-123.962;2022-09-16T09:43:32;101924.02;;;11.83;80.18
51067;BME280;37112;45.892;-123.962;2022-09-16T09:45:57;101926.21;;;11.82;80.26
51067;BME280;37112;45.892;-123.962;2022-09-16T09:48:19;101928.28;;;11.80;80.14
51067;BME280;37112;45.892;-123.962;2022-09-16T09:50:37;101927.13;;;11.78;80.28
51067;BME280;37112;45.892;-123.962;2022-09-16T09:52:58;101925.99;;;11.76;80.09
51067;BME280;37112;45.892;-123.962;2022-09-16T09:55:20;101926.20;;;11.72;80.26
51067;BME280;37112;45.892;-123.962;2022-09-16T09:57:38;101924.63;;;11.68;80.27
51067;BME280;37112;45.892;-123.962;2022-09-16T09:59:54;101923.36;;;11.64;80.39
51067;BME280;37112;45.892;-123.962;2022-09-16T10:02:21;101923.98;;;11.63;80.66
51067;BME280;37112;45.892;-123.962;2022-09-16T10:04:38;101917.30;;;11.62;80.83
51067;BME280;37112;45.892;-123.962;2022-09-16T10:06:53;101918.89;;;11.62;81.00
51067;BME280;37112;45.892;-123.962;2022-09-16T10:09:07;101923.61;;;11.63;81.25
51067;BME280;37112;45.892;-123.962;2022-09-16T10:11:23;101922.79;;;11.65;81.26
51067;BME280;37112;45.892;-123.962;2022-09-16T10:13:37;101919.31;;;11.67;81.45
51067;BME280;37112;45.892;-123.962;2022-09-16T10:16:11;101920.30;;;11.69;81.43
51067;BME280;37112;45.892;-123.962;2022-09-16T10:18:28;101925.21;;;11.70;81.44
51067;BME280;37112;45.892;-123.962;2022-09-16T10:20:43;101923.16;;;11.72;81.47
51067;BME280;37112;45.892;-123.962;2022-09-16T10:23:09;101922.54;;;11.73;81.54
51067;BME280;37112;45.892;-123.962;2022-09-16T10:25:25;101925.30;;;11.75;81.63
51067;BME280;37112;45.892;-123.962;2022-09-16T10:27:39;101919.20;;;11.76;81.79
51067;BME280;37112;45.892;-123.962;2022-09-16T10:30:09;101919.66;;;11.78;81.87
51067;BME280;37112;45.892;-123.962;2022-09-16T10:32:24;101917.55;;;11.81;81.90
51067;BME280;37112;45.892;-123.962;2022-09-16T10:34:39;101921.03;;;11.82;81.86
51067;BME280;37112;45.892;-123.962;2022-09-16T10:37:03;101912.08;;;11.84;81.80
51067;BME280;37112;45.892;-123.962;2022-09-16T10:39:25;101911.14;;;11.84;81.93
51067;BME280;37112;45.892;-123.962;2022-09-16T10:41:42;101912.80;;;11.86;81.91
51067;BME280;37112;45.892;-123.962;2022-09-16T10:43:58;101914.70;;;11.88;81.98
51067;BME280;37112;45.892;-123.962;2022-09-16T10:46:16;101913.02;;;11.89;81.89
51067;BME280;37112;45.892;-123.962;2022-09-16T10:48:31;101909.56;;;11.90;82.06
51067;BME280;37112;45.892;-123.962;2022-09-16T10:50:56;101915.14;;;11.93;82.22
51067;BME280;37112;45.892;-123.962;2022-09-16T10:53:25;101913.22;;;11.95;82.17
51067;BME280;37112;45.892;-123.962;2022-09-16T10:55:39;101909.88;;;11.98;82.23
51067;BME280;37112;45.892;-123.962;2022-09-16T10:57:53;101912.97;;;12.00;82.19
51067;BME280;37112;45.892;-123.962;2022-09-16T11:00:13;101907.83;;;12.03;82.36
51067;BME280;37112;45.892;-123.962;2022-09-16T11:02:36;101909.09;;;12.06;82.23
51067;BME280;37112;45.892;-123.962;2022-09-16T11:05:03;101903.64;;;12.08;82.23
51067;BME280;37112;45.892;-123.962;2022-09-16T11:07:26;101904.32;;;12.12;82.38
51067;BME280;37112;45.892;-123.962;2022-09-16T11:09:50;101902.92;;;12.14;82.43
51067;BME280;37112;45.892;-123.962;2022-09-16T11:12:24;101901.38;;;12.16;82.30
51067;BME280;37112;45.892;-123.962;2022-09-16T11:14:47;101893.46;;;12.18;82.30
51067;BME280;37112;45.892;-123.962;2022-09-16T11:17:28;101893.65;;;12.21;82.38
51067;BME280;37112;45.892;-123.962;2022-09-16T11:19:51;101891.40;;;12.23;82.24
51067;BME280;37112;45.892;-123.962;2022-09-16T11:22:15;101889.89;;;12.24;82.30
51067;BME280;37112;45.892;-123.962;2022-09-16T11:24:46;101893.91;;;12.26;82.24
51067;BME280;37112;45.892;-123.962;2022-09-16T11:27:09;101894.33;;;12.28;82.34
51067;BME280;37112;45.892;-123.962;2022-09-16T11:29:43;101894.90;;;12.31;82.33
51067;BME280;37112;45.892;-123.962;2022-09-16T11:32:07;101894.51;;;12.34;82.43
51067;BME280;37112;45.892;-123.962;2022-09-16T11:34:37;101894.54;;;12.37;82.44